Time;durP1;ratioP1;P1;durP2;ratioP2;P2;SDS_P1;SDS_P2;PMS_P1;PMS_P2;Temp;Humidity;BMP_temperature;BMP_pressure;BME280_temperature;BME280_humidity;BME280_pressure;Samples;Min_cycle;Max_cycle;Signal;HPM_P1;HPM_P2
2022/06/14 00:01:15;;;;;;;;;;;;;;;-146.27;100.00;64033.13;5091643;28;20328;-38
2022/06/14 00:03:42;;;;;;;;;;;;;;;-146.27;100.00;64033.13;5091292;28;19912;-37
2022/06/14 00:06:09;;;;;;;;;;;;;;;-146.27;100.00;64033.13;5091365;28;19919;-37
2022/06/14 00:08:35;;;;;;;;;;;;;;;-146.27;100.00;64033.13;5091354;28;19912;-38
2022/06/14 00:11:04;;;;;;;;;;;;;;;-146.27;100.00;64033.13;5091329;28;19934;-38
2022/06/14 00:13:29;;;;;;;;;;;;;;;-146.27;100.00;64033.13;5090744;28;19916;-38
2022/06/14 00:15:55;;;;;;;;;;;;;;;-146.27;100.00;64033.13;5091299;28;19990;-37
2022/06/14 00:18:20;;;;;;;;;;;;;;;-146.27;100.00;64033.13;5091229;28;20367;-37
2022/06/14 00:20:47;;;;;;;;;;;;;;;-146.27;100.00;64033.13;5096515;28;20275;-37
2022/06/14 00:23:12;;;;;;;;;;;;;;;-146.27;100.00;64033.13;5111381;28;20210;-38
2022/06/14 00:25:39;;;;;;;;;;;;;;;-146.27;100.00;64033.13;5110951;28;20395;-37
2022/06/14 00:28:05;;;;;;;;;;;;;;;-146.27;100.00;64033.13;5111661;28;19912;-38
2022/06/14 00:30:31;;;;;;;;;;;;;;;-146.27;100.00;64033.13;5111553;28;19986;-38
2022/06/14 00:32:56;;;;;;;;;;;;;;;-146.27;100.00;64033.13;5090528;28;20019;-38
2022/06/14 00:35:21;;;;;;;;;;;;;;;-146.27;100.00;64033.13;5091749;28;19916;-38
2022/06/14 00:37:47;;;;;;;;;;;;;;;-146.27;100.00;64033.13;5094609;28;19916;-38
2022/06/14 00:40:14;;;;;;;;;;;;;;;-146.27;100.00;64033.13;5094434;28;20332;-38
2022/06/14 00:42:39;;;;;;;;;;;;;;;-146.27;100.00;64033.13;5093904;28;20011;-38
2022/06/14 00:45:13;;;;;;;;;;;;;;;-146.27;100.00;64033.13;5093723;28;19956;-38
2022/06/14 00:47:42;;;;;;;;;;;;;;;-146.27;100.00;64033.13;5094078;28;19919;-38
2022/06/14 00:50:16;;;;;;;;;;;;;;;-146.27;100.00;64033.13;5094307;28;19912;-38
2022/06/14 00:52:48;;;;;;;;;;;;;;;-146.27;100.00;64033.13;5093823;28;19912;-38
2022/06/14 00:55:19;;;;;;;;;;;;;;;-146.27;100.00;64033.13;5093821;28;19912;-38
2022/06/14 00:58:01;;;;;;;;;;;;;;;-146.27;100.00;64033.13;5093704;28;19999;-38
2022/06/14 01:00:30;;;;;;;;;;;;;;;-146.27;100.00;64033.13;5094301;28;19951;-38
2022/06/14 01:02:58;;;;;;;;;;;;;;;-146.27;100.00;64033.13;5093918;28;19919;-38
2022/06/14 01:06:08;;;;;;;;;;;;;;;-146.27;100.00;64033.13;5093987;28;19912;-38
2022/06/14 01:08:46;;;;;;;;;;;;;;;-146.27;100.00;64033.13;5083267;28;19912;-38
2022/06/14 01:11:14;;;;;;;;;;;;;;;-146.27;100.00;64033.13;5094042;28;20382;-38
2022/06/14 01:13:40;;;;;;;;;;;;;;;-146.27;100.00;64033.13;5094314;28;19912;-38
2022/06/14 01:16:05;;;;;;;;;;;;;;;-146.27;100.00;64033.13;5094001;28;19912;-38
2022/06/14 01:18:31;;;;;;;;;;;;;;;-146.27;100.00;64033.13;5093843;28;19939;-38
2022/06/14 01:20:56;;;;;;;;;;;;;;;-146.27;100.00;64033.13;5100888;28;20441;-38
2022/06/14 01:23:22;;;;;;;;;;;;;;;-146.27;100.00;64033.13;5112598;28;19919;-38
2022/06/14 01:25:49;;;;;;;;;;;;;;;-146.27;100.00;64033.13;5114260;28;19962;-38
2022/06/14 01:28:16;;;;;;;;;;;;;;;-146.27;100.00;64033.13;5113920;28;19969;-38
2022/06/14 01:30:46;;;;;;;;;;;;;;;-146.27;100.00;64033.13;5112496;28;19912;-38
2022/06/14 01:33:14;;;;;;;;;;;;;;;-146.27;100.00;64033.13;5093384;28;19920;-38
2022/06/14 01:35:42;;;;;;;;;;;;;;;-146.27;100.00;64033.13;5093463;28;19920;-38
2022/06/14 01:38:09;;;;;;;;;;;;;;;-146.27;100.00;64033.13;5093721;28;19927;-38
2022/06/14 01:40:40;;;;;;;;;;;;;;;-146.27;100.00;64033.13;5093189;28;19927;-38
2022/06/14 01:43:13;;;;;;;;;;;;;;;-146.27;100.00;64033.13;5093261;28;20455;-38
2022/06/14 01:45:54;;;;;;;;;;;;;;;-146.27;100.00;64033.13;5093552;28;20012;-38
2022/06/14 01:48:29;;;;;;;;;;;;;;;-146.27;100.00;64033.13;5092806;28;19961;-38
2022/06/14 01:54:02;;;;;;;;;;;;;;;-146.27;100.00;64033.13;5093289;28;20386;-37
2022/06/14 01:56:33;;;;;;;;;;;;;;;-146.27;100.00;64033.13;5093136;28;19976;-38
2022/06/14 01:59:01;;;;;;;;;;;;;;;-146.27;100.00;64033.13;5092946;28;19920;-38
2022/06/14 02:01:27;;;;;;;;;;;;;;;-146.27;100.00;64033.13;5092717;28;19962;-38
2022/06/14 02:06:44;;;;;;;;;;;;;;;-146.27;100.00;64033.13;5093198;28;20019;-37
2022/06/14 02:09:16;;;;;;;;;;;;;;;-146.27;100.00;64033.13;5092844;28;19924;-36
2022/06/14 02:11:41;;;;;;;;;;;;;;;-146.27;100.00;64033.13;5092330;28;19912;-38
2022/06/14 02:14:15;;;;;;;;;;;;;;;-146.27;100.00;64033.13;5092765;28;19912;-38
2022/06/14 02:16:46;;;;;;;;;;;;;;;-146.27;100.00;64033.13;5092936;28;19912;-39
2022/06/14 02:19:14;;;;;;;;;;;;;;;-146.27;100.00;64033.13;5092689;28;20045;-38
2022/06/14 02:21:45;;;;;;;;;;;;;;;-146.27;100.00;64033.13;5092097;28;20019;-38
2022/06/14 02:24:36;;;;;;;;;;;;;;;-146.27;100.00;64033.13;5092773;28;19912;-38
2022/06/14 02:27:14;;;;;;;;;;;;;;;-146.27;100.00;64033.13;5091310;28;19939;-38
2022/06/14 02:29:44;;;;;;;;;;;;;;;-146.27;100.00;64033.13;5092543;28;19920;-38
2022/06/14 02:32:23;;;;;;;;;;;;;;;-146.27;100.00;64033.13;5092053;28;19919;-38
2022/06/14 03:02:17;;;;;;;;;;;;;;;-146.27;100.00;64033.13;5092217;28;20232;-38
2022/06/14 03:05:00;;;;;;;;;;;;;;;-146.27;100.00;64033.13;5091113;28;19912;-38
2022/06/14 03:07:31;;;;;;;;;;;;;;;-146.27;100.00;64033.13;5091337;28;19912;-38
2022/06/14 03:09:57;;;;;;;;;;;;;;;-146.27;100.00;64033.13;5091411;28;19912;-38
2022/06/14 03:12:22;;;;;;;;;;;;;;;-146.27;100.00;64033.13;5089824;28;19919;-38
2022/06/14 03:15:00;;;;;;;;;;;;;;;-146.27;100.00;64033.13;5091698;28;19912;-38
2022/06/14 03:17:34;;;;;;;;;;;;;;;-146.27;100.00;64033.13;5091826;28;19920;-38
2022/06/14 03:20:06;;;;;;;;;;;;;;;-146.27;100.00;64033.13;5091514;28;20091;-38
2022/06/14 03:22:51;;;;;;;;;;;;;;;-146.27;100.00;64033.13;5071626;28;19912;-37
2022/06/14 03:25:32;;;;;;;;;;;;;;;-146.27;100.00;64033.13;5059968;28;19912;-36
2022/06/14 03:28:01;;;;;;;;;;;;;;;-146.27;100.00;64033.13;5071826;28;20335;-38
2022/06/14 03:30:34;;;;;;;;;;;;;;;-146.27;100.00;64033.13;5071599;28;19912;-37
2022/06/14 03:33:02;;;;;;;;;;;;;;;-146.27;100.00;64033.13;5071466;28;19920;-38
2022/06/14 03:35:31;;;;;;;;;;;;;;;-146.27;100.00;64033.13;5071737;28;19917;-38
2022/06/14 03:37:59;;;;;;;;;;;;;;;-146.27;100.00;64033.13;5071716;28;20279;-37
2022/06/14 03:40:24;;;;;;;;;;;;;;;-146.27;100.00;64033.13;5071654;28;19970;-37
2022/06/14 03:42:50;;;;;;;;;;;;;;;-146.27;100.00;64033.13;5071641;28;19916;-38
2022/06/14 03:45:18;;;;;;;;;;;;;;;-146.27;100.00;64033.13;5071551;28;20072;-37
2022/06/14 03:47:43;;;;;;;;;;;;;;;-146.27;100.00;64033.13;5071080;28;19962;-37
2022/06/14 03:50:11;;;;;;;;;;;;;;;-146.27;100.00;64033.13;5071542;28;19916;-37
2022/06/14 03:52:55;;;;;;;;;;;;;;;-146.27;100.00;64033.13;5071218;28;19913;-38
2022/06/14 03:55:33;;;;;;;;;;;;;;;-146.27;100.00;64033.13;5071189;28;19912;-38
2022/06/14 03:57:58;;;;;;;;;;;;;;;-146.27;100.00;64033.13;5070615;28;19928;-38
2022/06/14 04:00:25;;;;;;;;;;;;;;;-146.27;100.00;64033.13;5070581;28;19924;-38
2022/06/14 04:02:55;;;;;;;;;;;;;;;-146.27;100.00;64033.13;5071370;28;20007;-38
2022/06/14 04:05:35;;;;;;;;;;;;;;;-146.27;100.00;64033.13;5091606;28;19916;-38
2022/06/14 04:08:18;;;;;;;;;;;;;;;-146.27;100.00;64033.13;5090943;28;20025;-38
2022/06/14 04:10:48;;;;;;;;;;;;;;;-146.27;100.00;64033.13;5093501;28;19927;-35
2022/06/14 04:13:14;;;;;;;;;;;;;;;-146.27;100.00;64033.13;5095056;28;19912;-37
2022/06/14 04:15:43;;;;;;;;;;;;;;;-146.27;100.00;64033.13;5095468;28;19938;-37
2022/06/14 04:18:34;;;;;;;;;;;;;;;-146.27;100.00;64033.13;5094819;28;19916;-37
2022/06/14 04:20:58;;;;;;;;;;;;;;;-146.27;100.00;64033.13;5094763;28;20387;-37
2022/06/14 04:23:29;;;;;;;;;;;;;;;-146.27;100.00;64033.13;5094901;28;20340;-36
2022/06/14 04:25:59;;;;;;;;;;;;;;;-146.27;100.00;64033.13;5094974;28;19912;-37
2022/06/14 04:28:37;;;;;;;;;;;;;;;-146.27;100.00;64033.13;5094856;28;19912;-37
2022/06/14 04:31:10;;;;;;;;;;;;;;;-146.27;100.00;64033.13;5094087;28;19919;-37
2022/06/14 04:33:46;;;;;;;;;;;;;;;-146.27;100.00;64033.13;5093887;28;20034;-37
2022/06/14 04:36:11;;;;;;;;;;;;;;;-146.27;100.00;64033.13;5094059;28;19959;-37
2022/06/14 04:38:57;;;;;;;;;;;;;;;-146.27;100.00;64033.13;5093798;28;19962;-37
2022/06/14 04:41:33;;;;;;;;;;;;;;;-146.27;100.00;64033.13;5081846;28;19919;-37
2022/06/14 04:44:02;;;;;;;;;;;;;;;-146.27;100.00;64033.13;5093279;28;20068;-37
2022/06/14 04:46:33;;;;;;;;;;;;;;;-146.27;100.00;64033.13;5093503;28;19916;-37
2022/06/14 04:48:58;;;;;;;;;;;;;;;-146.27;100.00;64033.13;5093567;28;20011;-37
2022/06/14 04:51:50;;;;;;;;;;;;;;;-146.27;100.00;64033.13;5093297;28;20439;-37
2022/06/14 04:54:19;;;;;;;;;;;;;;;-146.27;100.00;64033.13;5091460;28;19936;-37
2022/06/14 04:56:51;;;;;;;;;;;;;;;-146.27;100.00;64033.13;5093315;28;19912;-37
2022/06/14 04:59:19;;;;;;;;;;;;;;;-146.27;100.00;64033.13;5093426;28;19917;-37
2022/06/14 05:01:50;;;;;;;;;;;;;;;-146.27;100.00;64033.13;5092978;28;20017;-36
2022/06/14 05:04:15;;;;;;;;;;;;;;;-146.27;100.00;64033.13;5092952;28;19963;-38
2022/06/14 05:06:47;;;;;;;;;;;;;;;-146.27;100.00;64033.13;5093077;28;19967;-37
2022/06/14 05:09:18;;;;;;;;;;;;;;;-146.27;100.00;64033.13;5093187;28;19919;-37
2022/06/14 05:11:55;;;;;;;;;;;;;;;-146.27;100.00;64033.13;5092911;28;19935;-37
2022/06/14 05:14:28;;;;;;;;;;;;;;;-146.27;100.00;64033.13;5092656;28;19963;-36
2022/06/14 05:16:57;;;;;;;;;;;;;;;-146.27;100.00;64033.13;5092509;28;20423;-36
2022/06/14 05:19:37;;;;;;;;;;;;;;;-146.27;100.00;64033.13;5092701;28;19912;-36
2022/06/14 05:22:12;;;;;;;;;;;;;;;-146.27;100.00;64033.13;5092688;28;19912;-37
2022/06/14 05:24:38;;;;;;;;;;;;;;;-146.27;100.00;64033.13;5092648;28;19912;-37
2022/06/14 05:27:06;;;;;;;;;;;;;;;-146.27;100.00;64033.13;5087604;28;19912;-37
2022/06/14 05:29:38;;;;;;;;;;;;;;;-146.27;100.00;64033.13;5089744;28;19969;-37
2022/06/14 05:32:16;;;;;;;;;;;;;;;-146.27;100.00;64033.13;5075288;28;20077;-37
2022/06/14 05:35:04;;;;;;;;;;;;;;;-146.27;100.00;64033.13;5072404;28;19936;-37
2022/06/14 05:37:41;;;;;;;;;;;;;;;-146.27;100.00;64033.13;5071356;28;19923;-37
2022/06/14 05:40:13;;;;;;;;;;;;;;;-146.27;100.00;64033.13;5072109;28;19919;-37
2022/06/14 05:43:10;;;;;;;;;;;;;;;-146.27;100.00;64033.13;5071722;28;19913;-37
2022/06/14 05:45:39;;;;;;;;;;;;;;;-146.27;100.00;64033.13;5059359;28;19913;-37
2022/06/14 05:48:09;;;;;;;;;;;;;;;-146.27;100.00;64033.13;5071680;28;19943;-36
2022/06/14 05:50:43;;;;;;;;;;;;;;;-146.27;100.00;64033.13;5071008;28;19912;-36
2022/06/14 05:53:15;;;;;;;;;;;;;;;-146.27;100.00;64033.13;5069116;28;19935;-37
2022/06/14 05:55:44;;;;;;;;;;;;;;;-146.27;100.00;64033.13;5070276;28;20352;-37
2022/06/14 05:58:28;;;;;;;;;;;;;;;-146.27;100.00;64033.13;5070408;28;19927;-37
2022/06/14 06:00:57;;;;;;;;;;;;;;;-146.27;100.00;64033.13;5070414;28;20437;-37
2022/06/14 06:03:22;;;;;;;;;;;;;;;-146.27;100.00;64033.13;5073762;28;20388;-37
2022/06/14 06:05:53;;;;;;;;;;;;;;;-146.27;100.00;64033.13;5090807;28;19912;-38
2022/06/14 06:08:31;;;;;;;;;;;;;;;-146.27;100.00;64033.13;5090652;28;19916;-37
2022/06/14 06:11:00;;;;;;;;;;;;;;;-146.27;100.00;64033.13;5091457;28;19919;-37
2022/06/14 06:13:51;;;;;;;;;;;;;;;-146.27;100.00;64033.13;5091860;28;19995;-37
2022/06/14 06:17:14;;;;;;;;;;;;;;;-146.27;100.00;64033.13;5089599;28;19920;-38
2022/06/14 06:19:32;;;;;;;;;;;;;;;-146.27;100.00;64033.13;5088453;28;19978;-38
2022/06/14 06:22:15;;;;;;;;;;;;;;;-146.27;100.00;64033.13;5091340;28;20334;-37
2022/06/14 06:24:49;;;;;;;;;;;;;;;-146.27;100.00;64033.13;5091410;28;19916;-37
2022/06/14 06:27:14;;;;;;;;;;;;;;;-146.27;100.00;64033.13;5091145;28;19912;-37
2022/06/14 06:29:39;;;;;;;;;;;;;;;-146.27;100.00;64033.13;5091542;28;20372;-37
2022/06/14 06:32:06;;;;;;;;;;;;;;;-146.27;100.00;64033.13;5090954;28;19934;-37
2022/06/14 06:34:31;;;;;;;;;;;;;;;-146.27;100.00;64033.13;5090423;28;20031;-36
2022/06/14 06:37:06;;;;;;;;;;;;;;;-146.27;100.00;64033.13;5091074;28;19912;-37
2022/06/14 06:39:35;;;;;;;;;;;;;;;-146.27;100.00;64033.13;5089764;28;19919;-37
2022/06/14 06:42:04;;;;;;;;;;;;;;;-146.27;100.00;64033.13;5089914;28;19955;-37
2022/06/14 06:44:46;;;;;;;;;;;;;;;-146.27;100.00;64033.13;5090333;28;19911;-37
2022/06/14 06:47:11;;;;;;;;;;;;;;;-146.27;100.00;64033.13;5090301;28;19944;-36
2022/06/14 06:50:00;;;;;;;;;;;;;;;-146.27;100.00;64033.13;5090003;28;20371;-36
2022/06/14 06:52:43;;;;;;;;;;;;;;;-146.27;100.00;64033.13;5069668;28;19934;-36
2022/06/14 06:55:29;;;;;;;;;;;;;;;-146.27;100.00;64033.13;5089528;28;19919;-37
2022/06/14 06:57:57;;;;;;;;;;;;;;;-146.27;100.00;64033.13;5089805;28;19916;-37
2022/06/14 07:00:24;;;;;;;;;;;;;;;-146.27;100.00;64033.13;5089765;28;20391;-37
2022/06/14 07:02:52;;;;;;;;;;;;;;;-146.27;100.00;64033.13;5090627;28;19912;-38
2022/06/14 07:05:17;;;;;;;;;;;;;;;-146.27;100.00;64033.13;5090643;28;20256;-37
2022/06/14 07:07:55;;;;;;;;;;;;;;;-146.27;100.00;64033.13;5090583;28;19934;-37
2022/06/14 07:10:28;;;;;;;;;;;;;;;-146.27;100.00;64033.13;5090381;28;20132;-36
2022/06/14 07:12:53;;;;;;;;;;;;;;;-146.27;100.00;64033.13;5090842;28;19912;-37
2022/06/14 07:15:26;;;;;;;;;;;;;;;-146.27;100.00;64033.13;5091290;28;19919;-38
2022/06/14 07:18:01;;;;;;;;;;;;;;;-146.27;100.00;64033.13;5091259;28;20250;-37
2022/06/14 07:20:33;;;;;;;;;;;;;;;-146.27;100.00;64033.13;5090515;28;20462;-51
2022/06/14 07:23:09;;;;;;;;;;;;;;;-146.27;100.00;64033.13;5070126;28;19913;-51
2022/06/14 07:25:40;;;;;;;;;;;;;;;-146.27;100.00;64033.13;5070406;28;19954;-52
2022/06/14 07:28:12;;;;;;;;;;;;;;;-146.27;100.00;64033.13;5070138;28;20061;-51
2022/06/14 07:30:52;;;;;;;;;;;;;;;-146.27;100.00;64033.13;5070027;28;20062;-51
2022/06/14 07:33:18;;;;;;;;;;;;;;;-146.27;100.00;64033.13;5070056;28;19927;-51
2022/06/14 07:35:51;;;;;;;;;;;;;;;-146.27;100.00;64033.13;5070359;28;19975;-51
2022/06/14 07:38:19;;;;;;;;;;;;;;;-146.27;100.00;64033.13;5070217;28;19916;-51
2022/06/14 07:40:57;;;;;;;;;;;;;;;-146.27;100.00;64033.13;5070347;28;19920;-52
2022/06/14 07:43:31;;;;;;;;;;;;;;;-146.27;100.00;64033.13;5070077;28;19912;-51
2022/06/14 07:45:59;;;;;;;;;;;;;;;-146.27;100.00;64033.13;5073049;28;19983;-51
2022/06/14 07:48:24;;;;;;;;;;;;;;;-146.27;100.00;64033.13;5074528;28;19913;-51
2022/06/14 07:50:57;;;;;;;;;;;;;;;-146.27;100.00;64033.13;5073105;28;20404;-52
2022/06/14 07:53:39;;;;;;;;;;;;;;;-146.27;100.00;64033.13;5073608;28;19912;-51
2022/06/14 07:56:08;;;;;;;;;;;;;;;-146.27;100.00;64033.13;5074181;28;19928;-51
2022/06/14 07:58:42;;;;;;;;;;;;;;;-146.27;100.00;64033.13;5074181;28;19916;-51
2022/06/14 08:01:20;;;;;;;;;;;;;;;-146.27;100.00;64033.13;5074077;28;20288;-52
2022/06/14 08:03:49;;;;;;;;;;;;;;;-146.27;100.00;64033.13;5073784;28;19912;-51
2022/06/14 08:06:17;;;;;;;;;;;;;;;-146.27;100.00;64033.13;5074178;28;19920;-51
2022/06/14 08:08:44;;;;;;;;;;;;;;;-146.27;100.00;64033.13;5073532;28;19920;-53
2022/06/14 08:11:32;;;;;;;;;;;;;;;-146.27;100.00;64033.13;5073512;28;19913;-51
2022/06/14 08:14:04;;;;;;;;;;;;;;;-146.27;100.00;64033.13;5070332;28;19931;-51
2022/06/14 08:16:29;;;;;;;;;;;;;;;-146.27;100.00;64033.13;5074139;28;19932;-52
2022/06/14 08:19:01;;;;;;;;;;;;;;;-146.27;100.00;64033.13;5073445;28;19939;-51
2022/06/14 08:21:29;;;;;;;;;;;;;;;-146.27;100.00;64033.13;5086516;28;20017;-52
2022/06/14 08:23:57;;;;;;;;;;;;;;;-146.27;100.00;64033.13;5093568;28;19912;-52
2022/06/14 08:26:28;;;;;;;;;;;;;;;-146.27;100.00;64033.13;5093592;28;19912;-52
2022/06/14 08:28:58;;;;;;;;;;;;;;;-146.27;100.00;64033.13;5093335;28;19912;-51
2022/06/14 08:31:36;;;;;;;;;;;;;;;-146.27;100.00;64033.13;5092745;28;19916;-52
2022/06/14 08:34:04;;;;;;;;;;;;;;;-146.27;100.00;64033.13;5093677;28;20011;-52
2022/06/14 08:36:34;;;;;;;;;;;;;;;-146.27;100.00;64033.13;5093742;28;19912;-49
2022/06/14 08:39:01;;;;;;;;;;;;;;;-146.27;100.00;64033.13;5093613;28;19917;-51
2022/06/14 08:41:44;;;;;;;;;;;;;;;-146.27;100.00;64033.13;5093625;28;19912;-52
2022/06/14 08:44:15;;;;;;;;;;;;;;;-146.27;100.00;64033.13;5093986;28;20374;-51
2022/06/14 08:46:43;;;;;;;;;;;;;;;-146.27;100.00;64033.13;5093327;28;19958;-49
2022/06/14 08:49:08;;;;;;;;;;;;;;;-146.27;100.00;64033.13;5094130;28;19964;-49
2022/06/14 08:51:39;;;;;;;;;;;;;;;-146.27;100.00;64033.13;5093418;28;19912;-50
2022/06/14 08:54:20;;;;;;;;;;;;;;;-146.27;100.00;64033.13;5093269;28;19955;-51
2022/06/14 08:56:45;;;;;;;;;;;;;;;-146.27;100.00;64033.13;5092431;28;19940;-51
2022/06/14 08:59:13;;;;;;;;;;;;;;;-146.27;100.00;64033.13;5092738;28;20374;-51
2022/06/14 09:02:07;;;;;;;;;;;;;;;-146.27;100.00;64033.13;5092858;28;19912;-52
2022/06/14 09:04:51;;;;;;;;;;;;;;;-146.27;100.00;64033.13;5083667;28;19966;-51
2022/06/14 09:07:35;;;;;;;;;;;;;;;-146.27;100.00;64033.13;5093168;28;20280;-52
2022/06/14 09:10:07;;;;;;;;;;;;;;;-146.27;100.00;64033.13;5093185;28;19991;-52
2022/06/14 09:12:38;;;;;;;;;;;;;;;-146.27;100.00;64033.13;5092264;28;19962;-52
2022/06/14 09:15:09;;;;;;;;;;;;;;;-146.27;100.00;64033.13;5092588;28;20393;-51
2022/06/14 09:17:38;;;;;;;;;;;;;;;-146.27;100.00;64033.13;5092597;28;19939;-52
2022/06/14 09:20:06;;;;;;;;;;;;;;;-146.27;100.00;64033.13;5092491;28;19912;-51
2022/06/14 09:22:46;;;;;;;;;;;;;;;-146.27;100.00;64033.13;5072306;28;20003;-51
2022/06/14 09:25:37;;;;;;;;;;;;;;;-146.27;100.00;64033.13;5072690;28;19916;-52
2022/06/14 09:28:25;;;;;;;;;;;;;;;-146.27;100.00;64033.13;5063496;28;20352;-52
2022/06/14 09:30:54;;;;;;;;;;;;;;;-146.27;100.00;64033.13;5082771;28;20395;-52
2022/06/14 09:33:22;;;;;;;;;;;;;;;-146.27;100.00;64033.13;5090948;28;20418;-51
2022/06/14 09:35:48;;;;;;;;;;;;;;;-146.27;100.00;64033.13;5092626;28;19916;-52
2022/06/14 09:38:27;;;;;;;;;;;;;;;-146.27;100.00;64033.13;5090762;28;19951;-53
2022/06/14 09:41:18;;;;;;;;;;;;;;;-146.27;100.00;64033.13;5092264;28;19939;-55
2022/06/14 09:43:43;;;;;;;;;;;;;;;-146.27;100.00;64033.13;5091033;28;20252;-52
2022/06/14 09:46:18;;;;;;;;;;;;;;;-146.27;100.00;64033.13;5091860;28;19952;-51
2022/06/14 09:48:43;;;;;;;;;;;;;;;-146.27;100.00;64033.13;5092335;28;19913;-52
2022/06/14 09:51:27;;;;;;;;;;;;;;;-146.27;100.00;64033.13;5091936;28;20019;-52
2022/06/14 09:54:04;;;;;;;;;;;;;;;-146.27;100.00;64033.13;5091773;28;19928;-52
2022/06/14 09:56:36;;;;;;;;;;;;;;;-146.27;100.00;64033.13;5092114;28;19939;-53
2022/06/14 09:59:13;;;;;;;;;;;;;;;-146.27;100.00;64033.13;5092035;28;19920;-52
2022/06/14 10:01:53;;;;;;;;;;;;;;;-146.27;100.00;64033.13;5091919;28;20381;-53
2022/06/14 10:04:37;;;;;;;;;;;;;;;-146.27;100.00;64033.13;5091891;28;19915;-53
2022/06/14 10:07:21;;;;;;;;;;;;;;;-146.27;100.00;64033.13;5091443;28;19912;-51
2022/06/14 10:10:04;;;;;;;;;;;;;;;-146.27;100.00;64033.13;5091606;28;19912;-52
2022/06/14 10:12:48;;;;;;;;;;;;;;;-146.27;100.00;64033.13;5090913;28;20029;-51
2022/06/14 10:15:16;;;;;;;;;;;;;;;-146.27;100.00;64033.13;5091349;28;19912;-52
2022/06/14 10:18:00;;;;;;;;;;;;;;;-146.27;100.00;64033.13;5091609;28;20047;-52
2022/06/14 10:20:25;;;;;;;;;;;;;;;-146.27;100.00;64033.13;5094384;28;20432;-52
2022/06/14 10:23:06;;;;;;;;;;;;;;;-146.27;100.00;64033.13;5111369;28;19963;-50
2022/06/14 10:25:37;;;;;;;;;;;;;;;-146.27;100.00;64033.13;5111832;28;20340;-51
2022/06/14 10:28:19;;;;;;;;;;;;;;;-146.27;100.00;64033.13;5111674;28;19912;-54
2022/06/14 10:30:57;;;;;;;;;;;;;;;-146.27;100.00;64033.13;5098907;28;19985;-53
2022/06/14 10:33:39;;;;;;;;;;;;;;;-146.27;100.00;64033.13;5091104;28;20027;-52
2022/06/14 10:36:22;;;;;;;;;;;;;;;-146.27;100.00;64033.13;5091297;28;19916;-53
2022/06/14 10:39:06;;;;;;;;;;;;;;;-146.27;100.00;64033.13;5091594;28;19923;-53
2022/06/14 10:41:54;;;;;;;;;;;;;;;-146.27;100.00;64033.13;5091232;28;19965;-52
2022/06/14 10:44:35;;;;;;;;;;;;;;;-146.27;100.00;64033.13;5090979;28;20304;-52
2022/06/14 10:47:06;;;;;;;;;;;;;;;-146.27;100.00;64033.13;5091101;28;20002;-52
2022/06/14 10:49:47;;;;;;;;;;;;;;;-146.27;100.00;64033.13;5091469;28;20006;-51
2022/06/14 10:52:14;;;;;;;;;;;;;;;-146.27;100.00;64033.13;5091000;28;19977;-52
2022/06/14 10:54:45;;;;;;;;;;;;;;;-146.27;100.00;64033.13;5090930;28;19912;-52
2022/06/14 10:57:36;;;;;;;;;;;;;;;-146.27;100.00;64033.13;5091337;28;20314;-51
2022/06/14 11:00:18;;;;;;;;;;;;;;;-146.27;100.00;64033.13;5090878;28;20334;-52
2022/06/14 11:02:55;;;;;;;;;;;;;;;-146.27;100.00;64033.13;5090847;28;19912;-50
2022/06/14 11:05:39;;;;;;;;;;;;;;;-146.27;100.00;64033.13;5090891;28;19919;-52
2022/06/14 11:08:24;;;;;;;;;;;;;;;-146.27;100.00;64033.13;5090997;28;19928;-52
2022/06/14 11:10:49;;;;;;;;;;;;;;;-146.27;100.00;64033.13;5091089;28;19919;-51
2022/06/14 11:13:33;;;;;;;;;;;;;;;-146.27;100.00;64033.13;5090812;28;20012;-51
2022/06/14 11:15:58;;;;;;;;;;;;;;;-146.27;100.00;64033.13;5090783;28;19975;-52
2022/06/14 11:18:49;;;;;;;;;;;;;;;-146.27;100.00;64033.13;5090412;28;20376;-52
2022/06/14 11:21:23;;;;;;;;;;;;;;;-146.27;100.00;64033.13;5084023;28;19912;-51
2022/06/14 11:24:07;;;;;;;;;;;;;;;-146.27;100.00;64033.13;5111282;28;19912;-52
2022/06/14 11:26:32;;;;;;;;;;;;;;;-146.27;100.00;64033.13;5110727;28;19915;-52
2022/06/14 11:29:11;;;;;;;;;;;;;;;-146.27;100.00;64033.13;5109758;28;19922;-52
2022/06/14 11:31:40;;;;;;;;;;;;;;;-146.27;100.00;64033.13;5090926;28;20002;-52
2022/06/14 11:34:26;;;;;;;;;;;;;;;-146.27;100.00;64033.13;5090786;28;19932;-52
2022/06/14 11:37:10;;;;;;;;;;;;;;;-146.27;100.00;64033.13;5090189;28;19958;-52
2022/06/14 11:39:44;;;;;;;;;;;;;;;-146.27;100.00;64033.13;5090375;28;19916;-52
2022/06/14 11:42:15;;;;;;;;;;;;;;;-146.27;100.00;64033.13;5089987;28;19912;-52
2022/06/14 11:44:43;;;;;;;;;;;;;;;-146.27;100.00;64033.13;5090510;28;20006;-51
2022/06/14 11:47:17;;;;;;;;;;;;;;;-146.27;100.00;64033.13;5090589;28;19912;-50
2022/06/14 11:49:47;;;;;;;;;;;;;;;-146.27;100.00;64033.13;5090136;28;19912;-50
2022/06/14 11:52:21;;;;;;;;;;;;;;;-146.27;100.00;64033.13;5090334;28;19943;-50
2022/06/14 11:54:58;;;;;;;;;;;;;;;-146.27;100.00;64033.13;5090418;28;19959;-50
2022/06/14 11:57:33;;;;;;;;;;;;;;;-146.27;100.00;64033.13;5090091;28;19913;-51
2022/06/14 12:00:18;;;;;;;;;;;;;;;-146.27;100.00;64033.13;5090118;28;19966;-48
2022/06/14 12:02:54;;;;;;;;;;;;;;;-146.27;100.00;64033.13;5089225;28;20313;-51
2022/06/14 12:05:20;;;;;;;;;;;;;;;-146.27;100.00;64033.13;5090421;28;19912;-48
2022/06/14 12:07:49;;;;;;;;;;;;;;;-146.27;100.00;64033.13;5089855;28;19999;-51
2022/06/14 12:10:20;;;;;;;;;;;;;;;-146.27;100.00;64033.13;5089943;28;19959;-51
2022/06/14 12:12:57;;;;;;;;;;;;;;;-146.27;100.00;64033.13;5089506;28;20345;-48
2022/06/14 12:15:38;;;;;;;;;;;;;;;-146.27;100.00;64033.13;5090080;28;19951;-49
2022/06/14 12:18:07;;;;;;;;;;;;;;;-146.27;100.00;64033.13;5090151;28;19928;-48
2022/06/14 12:20:36;;;;;;;;;;;;;;;-146.27;100.00;64033.13;5094147;28;19912;-50
2022/06/14 12:23:04;;;;;;;;;;;;;;;-146.27;100.00;64033.13;5110178;28;20388;-48
2022/06/14 12:28:21;;;;;;;;;;;;;;;-146.27;100.00;64033.13;5109922;28;20221;-49
2022/06/14 12:30:48;;;;;;;;;;;;;;;-146.27;100.00;64033.13;5097282;28;20398;-49
2022/06/14 12:33:29;;;;;;;;;;;;;;;-146.27;100.00;64033.13;5093499;28;19920;-49
2022/06/14 12:35:57;;;;;;;;;;;;;;;-146.27;100.00;64033.13;5093504;28;19920;-49
2022/06/14 12:38:26;;;;;;;;;;;;;;;-146.27;100.00;64033.13;5093364;28;19923;-50
2022/06/14 12:41:03;;;;;;;;;;;;;;;-146.27;100.00;64033.13;5093044;28;19923;-51
2022/06/14 12:43:33;;;;;;;;;;;;;;;-146.27;100.00;64033.13;5093192;28;19931;-49
2022/06/14 12:46:02;;;;;;;;;;;;;;;-146.27;100.00;64033.13;5093532;28;19912;-48
2022/06/14 12:48:50;;;;;;;;;;;;;;;-146.27;100.00;64033.13;5093583;28;19912;-48
2022/06/14 12:51:15;;;;;;;;;;;;;;;-146.27;100.00;64033.13;5092991;28;20003;-50
2022/06/14 12:53:47;;;;;;;;;;;;;;;-146.27;100.00;64033.13;5093191;28;20425;-51
2022/06/14 12:56:15;;;;;;;;;;;;;;;-146.27;100.00;64033.13;5093690;28;19912;-51
2022/06/14 12:58:49;;;;;;;;;;;;;;;-146.27;100.00;64033.13;5092896;28;20444;-50
2022/06/14 13:01:23;;;;;;;;;;;;;;;-146.27;100.00;64033.13;5092785;28;19919;-51
2022/06/14 13:03:55;;;;;;;;;;;;;;;-146.27;100.00;64033.13;5092970;28;19912;-50
2022/06/14 13:06:40;;;;;;;;;;;;;;;-146.27;100.00;64033.13;5092861;28;19986;-47
2022/06/14 13:09:09;;;;;;;;;;;;;;;-146.27;100.00;64033.13;5092661;28;19916;-49
2022/06/14 13:11:44;;;;;;;;;;;;;;;-146.27;100.00;64033.13;5092683;28;19935;-49
2022/06/14 13:14:36;;;;;;;;;;;;;;;-146.27;100.00;64033.13;5093083;28;19915;-50
2022/06/14 13:17:13;;;;;;;;;;;;;;;-146.27;100.00;64033.13;5092055;28;20070;-50
2022/06/14 13:19:51;;;;;;;;;;;;;;;-146.27;100.00;64033.13;5093035;28;19916;-49
2022/06/14 13:22:22;;;;;;;;;;;;;;;-146.27;100.00;64033.13;5111088;28;20306;-51
2022/06/14 13:24:59;;;;;;;;;;;;;;;-146.27;100.00;64033.13;5113274;28;20426;-50